Time;durP1;ratioP1;P1;durP2;ratioP2;P2;SDS_P1;SDS_P2;PMS_P1;PMS_P2;Temp;Humidity;BMP_temperature;BMP_pressure;BME280_temperature;BME280_humidity;BME280_pressure;Samples;Min_cycle;Max_cycle;Signal;HPM_P1;HPM_P2
2021/09/17 00:00:29;;;;;;;10.90;9.40;;;;;;;16.72;76.38;100540.53;5005753;28;20416;-85
2021/09/17 00:02:55;;;;;;;10.23;9.07;;;;;;;16.72;76.40;100540.53;5006897;28;20411;-85
2021/09/17 00:05:21;;;;;;;13.50;8.32;;;;;;;16.72;76.13;100540.53;5009023;28;20406;-85
2021/09/17 00:07:46;;;;;;;9.80;9.00;;;;;;;16.71;76.79;100527.94;5018690;28;20395;-85
2021/09/17 00:10:12;;;;;;;11.97;9.70;;;;;;;16.70;76.67;100527.09;5010300;28;20389;-85
2021/09/17 00:12:38;;;;;;;12.43;8.50;;;;;;;16.71;76.69;100516.97;5010459;28;20472;-84
2021/09/17 00:15:04;;;;;;;9.50;8.60;;;;;;;16.72;76.66;100526.84;5007655;28;20401;-85
2021/09/17 00:17:30;;;;;;;10.18;9.02;;;;;;;16.73;76.60;100528.47;5005084;28;20421;-85
2021/09/17 00:19:55;;;;;;;9.82;8.85;;;;;;;16.75;76.84;100526.28;5027366;28;20413;-85
2021/09/17 00:22:20;;;;;;;11.80;9.77;;;;;;;16.75;77.10;100529.81;5009687;28;20938;-85
2021/09/17 00:24:46;;;;;;;10.70;9.53;;;;;;;16.76;76.57;100528.69;5011730;28;20854;-85
2021/09/17 00:27:11;;;;;;;10.70;9.70;;;;;;;16.78;76.46;100523.78;5003216;28;20407;-85
2021/09/17 00:29:36;;;;;;;15.03;9.67;;;;;;;16.78;76.40;100526.53;5000681;28;20759;-85
2021/09/17 00:32:02;;;;;;;13.90;9.03;;;;;;;16.77;76.42;100524.88;5017010;28;20410;-85
2021/09/17 00:34:27;;;;;;;12.38;9.43;;;;;;;16.76;76.47;100525.19;5010612;28;20419;-85
2021/09/17 00:36:52;;;;;;;10.63;8.83;;;;;;;16.71;76.44;100514.25;5010412;28;20408;-85
2021/09/17 00:39:17;;;;;;;14.33;8.73;;;;;;;16.69;76.58;100514.56;5009382;28;20420;-85
2021/09/17 00:41:43;;;;;;;11.55;9.05;;;;;;;16.68;76.54;100517.56;5008460;28;20625;-85
2021/09/17 00:44:10;;;;;;;10.13;8.40;;;;;;;16.65;76.86;100518.94;5008427;28;20411;-85
2021/09/17 00:46:36;;;;;;;9.68;8.68;;;;;;;16.64;76.40;100514.56;5009126;28;20760;-85
2021/09/17 00:49:01;;;;;;;13.63;9.35;;;;;;;16.63;77.05;100523.88;5007804;28;20448;-84
2021/09/17 00:51:26;;;;;;;11.40;9.13;;;;;;;16.59;76.96;100517.34;5011512;28;20416;-85
2021/09/17 00:53:52;;;;;;;12.98;9.68;;;;;;;16.56;77.19;100521.44;5004516;28;20408;-85
2021/09/17 00:56:18;;;;;;;12.57;9.60;;;;;;;16.54;77.48;100514.59;5009735;28;20851;-85
2021/09/17 00:58:43;;;;;;;12.47;10.57;;;;;;;16.54;77.59;100517.31;5009540;28;20397;-85
2021/09/17 01:01:08;;;;;;;11.23;9.80;;;;;;;16.53;77.59;100521.97;5007131;28;20749;-85
2021/09/17 01:03:34;;;;;;;12.33;10.00;;;;;;;16.51;77.67;100520.63;5011158;28;20393;-85
2021/09/17 01:06:01;;;;;;;15.60;10.20;;;;;;;16.52;78.00;100522.28;5003427;28;20877;-85
2021/09/17 01:08:26;;;;;;;10.13;9.13;;;;;;;16.49;77.58;100515.47;5000153;28;20431;-85
2021/09/17 01:10:52;;;;;;;12.73;9.87;;;;;;;16.48;77.75;100513.00;5025144;28;20444;-85
2021/09/17 01:13:18;;;;;;;10.50;9.30;;;;;;;16.47;78.00;100512.16;4999519;28;20403;-85
2021/09/17 01:15:43;;;;;;;10.90;8.55;;;;;;;16.48;78.13;100511.06;5003272;28;20520;-85
2021/09/17 01:18:09;;;;;;;14.33;9.40;;;;;;;16.49;78.49;100515.47;5009942;28;20444;-85
2021/09/17 01:20:34;;;;;;;10.20;9.03;;;;;;;16.49;78.17;100520.09;5025754;28;20416;-85
2021/09/17 01:22:59;;;;;;;11.43;8.83;;;;;;;16.49;78.07;100515.47;5004554;28;20457;-85
2021/09/17 01:25:25;;;;;;;10.27;8.30;;;;;;;16.51;78.07;100509.69;5010026;28;20891;-85
2021/09/17 01:27:51;;;;;;;11.70;8.77;;;;;;;16.49;77.73;100503.69;5003818;28;20403;-85
2021/09/17 01:30:18;;;;;;;9.02;8.23;;;;;;;16.46;77.35;100504.25;5009299;28;20396;-85
2021/09/17 01:32:44;;;;;;;8.25;7.57;;;;;;;16.43;77.35;100504.81;5007634;28;20756;-85
2021/09/17 01:35:15;;;;;;;9.68;8.00;;;;;;;16.42;77.29;100500.44;5009722;28;20481;-85
2021/09/17 01:37:41;;;;;;;10.93;8.23;;;;;;;16.40;77.88;100502.66;5008831;28;20413;-85
2021/09/17 01:40:08;;;;;;;12.47;8.53;;;;;;;16.37;77.76;100497.72;5009759;28;20808;-85
2021/09/17 01:42:33;;;;;;;12.07;8.00;;;;;;;16.34;77.80;100496.38;5006364;28;20401;-85
2021/09/17 01:44:58;;;;;;;9.03;8.23;;;;;;;16.35;78.03;100491.72;5006076;28;20404;-85
2021/09/17 01:47:24;;;;;;;11.70;8.07;;;;;;;16.31;78.00;100490.66;4998137;28;20497;-85
2021/09/17 01:49:49;;;;;;;9.27;8.40;;;;;;;16.29;77.87;100484.66;5010206;28;20482;-85
2021/09/17 01:52:14;;;;;;;8.90;7.97;;;;;;;16.27;77.82;100487.66;5006597;28;20411;-85
2021/09/17 01:54:42;;;;;;;9.87;7.67;;;;;;;16.25;77.89;100484.41;5001302;28;20497;-85
2021/09/17 01:57:07;;;;;;;9.70;8.00;;;;;;;16.25;77.44;100475.38;5003669;28;20398;-85
2021/09/17 01:59:33;;;;;;;11.20;8.87;;;;;;;16.23;77.12;100480.31;5006667;28;20420;-85
2021/09/17 02:01:59;;;;;;;13.13;9.18;;;;;;;16.22;76.94;100475.94;5010820;28;20939;-85
2021/09/17 02:04:24;;;;;;;10.43;9.43;;;;;;;16.18;76.98;100483.88;5009560;28;20408;-85
2021/09/17 02:06:49;;;;;;;10.00;9.00;;;;;;;16.14;77.01;100479.25;5009102;28;20428;-85
2021/09/17 02:09:14;;;;;;;12.90;9.13;;;;;;;16.11;76.79;100475.16;5009302;28;20416;-85
2021/09/17 02:11:40;;;;;;;9.10;8.30;;;;;;;16.08;77.01;100484.75;5002324;28;20408;-86
2021/09/17 02:14:05;;;;;;;10.20;8.67;;;;;;;16.06;76.73;100488.88;5004528;28;20405;-85
2021/09/17 02:16:31;;;;;;;12.20;8.17;;;;;;;15.99;77.25;100483.72;4999929;28;20450;-85
2021/09/17 02:18:56;;;;;;;11.87;7.93;;;;;;;15.94;77.27;100472.78;5007363;28;20422;-85
2021/09/17 02:21:22;;;;;;;10.07;8.35;;;;;;;15.86;77.05;100478.03;5010829;28;20491;-86
2021/09/17 02:23:49;;;;;;;10.33;8.27;;;;;;;15.84;77.24;100480.22;5010504;28;20405;-85
2021/09/17 02:26:14;;;;;;;14.85;9.13;;;;;;;15.82;77.15;100475.03;5006474;28;20406;-85
2021/09/17 02:28:40;;;;;;;11.15;8.40;;;;;;;15.79;77.10;100477.50;5008064;28;20454;-85
2021/09/17 02:31:05;;;;;;;10.00;9.10;;;;;;;15.79;77.62;100477.50;5004732;28;20405;-84
2021/09/17 02:33:31;;;;;;;10.43;8.57;;;;;;;15.79;77.17;100475.59;5000923;28;20401;-85
2021/09/17 02:35:57;;;;;;;14.25;8.20;;;;;;;15.77;77.17;100469.59;5009169;28;20483;-85
2021/09/17 02:38:22;;;;;;;10.55;8.57;;;;;;;15.74;77.16;100469.34;5009119;28;20389;-85
2021/09/17 02:40:48;;;;;;;9.87;8.67;;;;;;;15.71;77.48;100469.88;5011654;28;20414;-85
2021/09/17 02:43:14;;;;;;;10.10;9.10;;;;;;;15.69;77.36;100464.69;5011931;28;20427;-85
2021/09/17 02:45:39;;;;;;;13.40;9.20;;;;;;;15.67;77.02;100464.16;5007055;28;20415;-84
2021/09/17 02:48:05;;;;;;;13.87;9.67;;;;;;;15.64;77.32;100458.44;5004325;28;20807;-85
2021/09/17 02:50:31;;;;;;;14.52;10.07;;;;;;;15.63;77.27;100462.25;5005613;28;20519;-85
2021/09/17 02:52:56;;;;;;;13.55;8.35;;;;;;;15.62;77.54;100466.91;5012372;28;20401;-85
2021/09/17 02:55:21;;;;;;;10.07;9.10;;;;;;;15.62;77.35;100466.91;5012511;28;20404;-85
2021/09/17 02:57:47;;;;;;;15.18;9.77;;;;;;;15.60;77.02;100462.81;5013951;28;20767;-85
2021/09/17 03:00:12;;;;;;;10.70;8.20;;;;;;;15.57;77.21;100466.94;5002013;28;20421;-86
2021/09/17 03:02:40;;;;;;;12.57;8.70;;;;;;;15.55;77.35;100472.66;5005531;28;20466;-85
2021/09/17 03:05:06;;;;;;;9.63;7.97;;;;;;;15.51;77.27;100468.81;5001264;28;20398;-85
2021/09/17 03:07:31;;;;;;;17.80;8.93;;;;;;;15.48;77.19;100469.38;5013029;28;20400;-85
2021/09/17 03:09:56;;;;;;;12.13;8.70;;;;;;;15.46;76.85;100466.09;5013638;28;20404;-85
2021/09/17 03:12:22;;;;;;;13.33;8.70;;;;;;;15.44;77.01;100453.81;5010117;28;20399;-85
2021/09/17 03:14:47;;;;;;;12.17;8.27;;;;;;;15.43;77.21;100465.81;5003495;28;20737;-85
2021/09/17 03:17:12;;;;;;;9.10;7.70;;;;;;;15.40;76.90;100459.00;5001210;28;20409;-85
2021/09/17 03:19:38;;;;;;;8.93;8.00;;;;;;;15.41;76.92;100457.09;5004864;28;20436;-86
2021/09/17 03:22:04;;;;;;;12.02;8.27;;;;;;;15.41;76.89;100457.09;5007464;28;20468;-86
2021/09/17 03:24:29;;;;;;;12.77;8.50;;;;;;;15.41;77.08;100448.91;5010628;28;20412;-86
2021/09/17 03:26:55;;;;;;;9.23;8.37;;;;;;;15.42;77.57;100445.06;5013326;28;20458;-85
2021/09/17 03:29:20;;;;;;;8.80;7.90;;;;;;;15.43;77.17;100441.25;5013052;28;20401;-85
2021/09/17 03:31:45;;;;;;;10.37;7.63;;;;;;;15.42;77.26;100443.16;5007517;28;20401;-85
2021/09/17 03:34:10;;;;;;;11.18;7.85;;;;;;;15.41;77.53;100441.50;5003151;28;20497;-85
2021/09/17 03:36:42;;;;;;;11.30;8.67;;;;;;;15.41;77.17;100448.91;5017609;28;20471;-85
2021/09/17 03:39:07;;;;;;;11.90;7.73;;;;;;;15.40;77.07;100442.63;5007217;28;20412;-85
2021/09/17 03:41:33;;;;;;;10.33;7.83;;;;;;;15.37;77.55;100443.19;5003602;28;20415;-86
2021/09/17 03:43:58;;;;;;;8.93;8.10;;;;;;;15.36;77.15;100436.06;5011781;28;20439;-86
2021/09/17 03:46:23;;;;;;;9.83;7.90;;;;;;;15.37;77.12;100442.34;5004724;28;20407;-86
2021/09/17 03:48:49;;;;;;;9.27;8.10;;;;;;;15.35;77.71;100442.63;5011320;28;20410;-86
2021/09/17 03:51:14;;;;;;;9.23;6.97;;;;;;;15.34;77.68;100445.66;5010446;28;20412;-86
2021/09/17 03:53:39;;;;;;;8.87;6.93;;;;;;;15.32;77.56;100445.91;5009539;28;20455;-85
2021/09/17 03:56:05;;;;;;;8.20;7.30;;;;;;;15.29;77.26;100448.38;5004362;28;20414;-85
2021/09/17 03:58:30;;;;;;;10.70;6.88;;;;;;;15.27;77.44;100445.09;5002525;28;20409;-85
2021/09/17 04:00:55;;;;;;;7.47;6.83;;;;;;;15.25;77.33;100453.56;5000401;28;20481;-85
2021/09/17 04:03:21;;;;;;;7.57;6.82;;;;;;;15.21;77.02;100443.50;5002758;28;20909;-85
2021/09/17 04:05:46;;;;;;;8.40;6.90;;;;;;;15.19;76.57;100451.13;5002195;28;20399;-86
2021/09/17 04:08:11;;;;;;;7.73;7.10;;;;;;;15.19;77.17;100454.66;5005301;28;20397;-86
2021/09/17 04:10:37;;;;;;;8.63;7.20;;;;;;;15.18;77.15;100450.28;5013937;28;20416;-86
2021/09/17 04:13:02;;;;;;;7.93;7.30;;;;;;;15.17;77.10;100443.22;5002059;28;20743;-85
2021/09/17 04:15:27;;;;;;;8.18;7.28;;;;;;;15.17;77.35;100453.31;5003160;28;20492;-85
2021/09/17 04:17:54;;;;;;;10.77;7.57;;;;;;;15.14;77.23;100448.41;5003343;28;20412;-85
2021/09/17 04:20:19;;;;;;;9.23;7.87;;;;;;;15.09;77.82;100441.03;5005318;28;20618;-86
2021/09/17 04:22:44;;;;;;;8.40;7.57;;;;;;;15.07;77.23;100448.69;5007732;28;20499;-85
2021/09/17 04:25:10;;;;;;;9.33;8.27;;;;;;;15.07;77.78;100448.69;5004585;28;20468;-86
2021/09/17 04:27:36;;;;;;;7.87;7.17;;;;;;;15.08;77.36;100453.06;5008995;28;20954;-85
2021/09/17 04:30:04;;;;;;;9.70;7.20;;;;;;;15.07;77.41;100446.78;5001836;28;20403;-86
2021/09/17 04:32:30;;;;;;;9.68;7.03;;;;;;;15.06;77.07;100447.88;5008403;28;20401;-86
2021/09/17 04:34:55;;;;;;;11.38;6.90;;;;;;;15.04;76.80;100447.34;5007066;28;20418;-87
2021/09/17 04:37:21;;;;;;;10.23;6.53;;;;;;;15.03;76.11;100447.59;5008152;28;20772;-86
2021/09/17 04:39:46;;;;;;;11.03;7.20;;;;;;;15.00;75.73;100450.88;5009038;28;20428;-86
2021/09/17 04:42:11;;;;;;;7.72;7.03;;;;;;;14.98;75.69;100448.41;5007741;28;20397;-86
2021/09/17 04:44:38;;;;;;;10.63;6.37;;;;;;;14.96;75.07;100453.31;5006805;28;20825;-86
2021/09/17 04:47:03;;;;;;;6.83;6.20;;;;;;;14.91;74.79;100453.34;5008202;28;20415;-86
2021/09/17 04:49:29;;;;;;;9.97;5.70;;;;;;;14.83;74.69;100445.69;5006079;28;20495;-85
2021/09/17 04:51:54;;;;;;;10.90;5.83;;;;;;;14.79;74.93;100446.50;5007163;28;20410;-85
2021/09/17 04:54:19;;;;;;;7.20;5.33;;;;;;;14.77;75.26;100448.69;5010097;28;20417;-84
2021/09/17 04:56:44;;;;;;;17.27;6.47;;;;;;;14.74;75.51;100450.06;5007338;28;20400;-84
2021/09/17 04:59:10;;;;;;;6.53;5.60;;;;;;;14.73;75.45;100456.59;5005425;28;20900;-84
2021/09/17 05:01:36;;;;;;;14.38;6.55;;;;;;;14.73;76.23;100453.06;5005371;28;20936;-84
2021/09/17 05:04:01;;;;;;;8.50;7.00;;;;;;;14.70;76.41;100459.06;4999603;28;20464;-85
2021/09/17 05:06:30;;;;;;;9.13;5.93;;;;;;;14.71;76.57;100453.34;5007559;28;20768;-86
2021/09/17 05:08:56;;;;;;;6.47;5.88;;;;;;;14.71;76.33;100449.78;5005017;28;20409;-87
2021/09/17 05:11:21;;;;;;;6.17;5.63;;;;;;;14.74;76.56;100450.06;5006900;28;20765;-84
2021/09/17 05:13:46;;;;;;;9.95;6.03;;;;;;;14.77;76.72;100457.69;5005366;28;20428;-82
2021/09/17 05:16:11;;;;;;;7.07;5.87;;;;;;;14.83;76.80;100458.50;4998550;28;20425;-85
2021/09/17 05:18:37;;;;;;;6.50;5.67;;;;;;;14.86;77.11;100458.78;4997323;28;20420;-85
2021/09/17 05:21:02;;;;;;;8.60;6.78;;;;;;;14.90;77.10;100456.34;4997170;28;20428;-85
2021/09/17 05:23:27;;;;;;;9.23;5.90;;;;;;;14.92;77.50;100456.88;4998279;28;20564;-86
2021/09/17 05:25:52;;;;;;;9.70;5.87;;;;;;;14.96;77.19;100457.97;5004196;28;20884;-87
2021/09/17 05:28:18;;;;;;;9.20;6.13;;;;;;;14.99;77.20;100452.78;5007990;28;20405;-87
2021/09/17 05:30:43;;;;;;;8.90;6.23;;;;;;;15.01;77.26;100458.81;5006616;28;20470;-87
2021/09/17 05:33:08;;;;;;;7.97;5.30;;;;;;;15.05;77.20;100459.03;5006372;28;20406;-86
2021/09/17 05:35:34;;;;;;;6.40;5.33;;;;;;;15.09;77.30;100454.69;5008771;28;20428;-87
2021/09/17 05:37:59;;;;;;;7.07;5.60;;;;;;;15.13;76.85;100455.78;5002518;28;20880;-83
2021/09/17 05:40:24;;;;;;;9.65;5.82;;;;;;;15.16;76.75;100451.66;5001901;28;20426;-84
2021/09/17 05:42:50;;;;;;;10.63;6.90;;;;;;;15.19;77.01;100451.94;5003647;28;20802;-85
2021/09/17 05:45:15;;;;;;;7.10;5.53;;;;;;;15.21;76.47;100460.69;5003078;28;20405;-87
2021/09/17 05:47:44;;;;;;;8.13;4.80;;;;;;;15.21;75.74;100455.22;4999347;28;20422;-86
2021/09/17 05:50:10;;;;;;;12.43;5.93;;;;;;;15.20;75.59;100456.31;4999900;28;20492;-86
2021/09/17 05:52:36;;;;;;;11.00;5.65;;;;;;;15.18;75.84;100447.56;5005413;28;20491;-87
2021/09/17 05:55:01;;;;;;;10.07;5.70;;;;;;;15.20;76.33;100456.31;5004478;28;20488;-85
2021/09/17 05:57:26;;;;;;;11.67;5.47;;;;;;;15.22;76.03;100458.75;4997212;28;20406;-87
2021/09/17 05:59:51;;;;;;;6.50;5.37;;;;;;;15.24;75.98;100457.41;5007348;28;20416;-87
2021/09/17 06:02:17;;;;;;;9.20;5.70;;;;;;;15.27;76.19;100459.59;5004168;28;20412;-89
2021/09/17 06:04:43;;;;;;;9.10;5.00;;;;;;;15.28;76.69;100463.13;5009477;28;20738;-86
2021/09/17 06:07:08;;;;;;;6.70;5.25;;;;;;;15.29;76.11;100457.38;4996054;28;20953;-87
2021/09/17 06:09:35;;;;;;;6.00;5.30;;;;;;;15.34;76.00;100460.13;5005678;28;20419;-88
2021/09/17 06:12:01;;;;;;;7.30;5.65;;;;;;;15.41;76.55;100460.63;5006826;28;20405;-88
2021/09/17 06:14:26;;;;;;;8.33;5.60;;;;;;;15.38;76.05;100457.63;5002487;28;20407;-87
2021/09/17 06:16:51;;;;;;;6.45;5.32;;;;;;;15.42;76.05;100456.81;5009835;28;20424;-84
2021/09/17 06:19:16;;;;;;;7.20;5.43;;;;;;;15.52;76.03;100447.81;5001182;28;20454;-87
2021/09/17 06:21:42;;;;;;;7.63;5.10;;;;;;;15.53;75.79;100454.91;5004455;28;20763;-86
2021/09/17 06:24:07;;;;;;;9.20;4.97;;;;;;;15.50;76.09;100453.56;5003974;28;20429;-88
2021/09/17 06:26:33;;;;;;;8.60;5.10;;;;;;;15.55;75.76;100458.16;5013867;28;20405;-89
2021/09/17 06:29:04;;;;;;;10.67;5.27;;;;;;;15.60;75.12;100460.06;5009529;28;20388;-88
2021/09/17 06:31:29;;;;;;;12.73;5.47;;;;;;;15.63;74.55;100459.53;5005819;28;20425;-89
2021/09/17 06:33:55;;;;;;;7.40;4.97;;;;;;;15.63;74.72;100457.63;5004177;28;20432;-88
2021/09/17 06:36:20;;;;;;;12.90;4.70;;;;;;;15.65;74.42;100462.78;5025960;28;20466;-88
2021/09/17 06:38:46;;;;;;;18.97;5.10;;;;;;;15.67;74.79;100458.69;4999321;28;20425;-88
2021/09/17 06:41:11;;;;;;;7.37;4.97;;;;;;;15.65;75.42;100458.13;5008490;28;20496;-88
2021/09/17 06:43:38;;;;;;;14.27;4.82;;;;;;;15.65;76.32;100454.59;5009818;28;20871;-88
2021/09/17 06:46:04;;;;;;;10.57;5.43;;;;;;;15.74;75.96;100455.66;5013981;28;20484;-89
2021/09/17 06:48:30;;;;;;;10.60;5.17;;;;;;;15.83;75.77;100460.28;5012202;28;20892;-86
2021/09/17 06:50:55;;;;;;;8.80;5.00;;;;;;;15.88;75.79;100459.41;5005300;28;20496;-84
2021/09/17 06:53:21;;;;;;;9.27;6.33;;;;;;;15.96;75.54;100461.59;5025991;28;20490;-87
2021/09/17 06:55:46;;;;;;;10.30;5.17;;;;;;;16.01;75.69;100462.38;5013552;28;20496;-86
2021/09/17 06:58:11;;;;;;;6.07;4.70;;;;;;;16.00;74.63;100449.78;5008047;28;20459;-84
2021/09/17 07:00:38;;;;;;;6.83;5.27;;;;;;;16.04;74.70;100458.25;5001615;28;20434;-86
2021/09/17 07:03:04;;;;;;;7.88;5.72;;;;;;;16.13;75.12;100462.06;5010826;28;21097;-86
2021/09/17 07:05:30;;;;;;;11.23;5.20;;;;;;;16.23;75.15;100461.19;5008684;28;20418;-85
2021/09/17 07:08:06;;;;;;;12.50;5.67;;;;;;;16.32;75.23;100464.94;5028865;28;20423;-84
2021/09/17 07:10:35;;;;;;;11.18;5.57;;;;;;;16.40;74.97;100467.09;5013231;28;20391;-85
2021/09/17 07:13:00;;;;;;;6.63;5.15;;;;;;;16.48;74.95;100461.84;5008309;28;20400;-86
2021/09/17 07:15:26;;;;;;;8.80;5.05;;;;;;;16.52;75.28;100470.31;5009681;28;20863;-87
2021/09/17 07:17:51;;;;;;;7.60;5.60;;;;;;;16.56;74.70;100468.66;5010617;28;20449;-87
2021/09/17 07:20:17;;;;;;;7.88;5.45;;;;;;;16.61;74.33;100465.88;5010732;28;20832;-86
2021/09/17 07:22:43;;;;;;;7.22;5.47;;;;;;;16.60;74.38;100469.72;5010798;28;20408;-84
2021/09/17 07:25:09;;;;;;;9.50;6.00;;;;;;;16.64;74.72;100461.75;5010740;28;20405;-87
2021/09/17 07:27:34;;;;;;;6.63;5.80;;;;;;;16.70;74.37;100457.88;5009965;28;20453;-85
2021/09/17 07:30:00;;;;;;;7.00;5.73;;;;;;;16.79;73.50;100454.28;5010827;28;20397;-85
2021/09/17 07:32:25;;;;;;;7.10;6.10;;;;;;;16.83;73.96;100460.78;5010778;28;20404;-86
2021/09/17 07:34:50;;;;;;;7.05;5.93;;;;;;;16.90;74.00;100460.44;5012309;28;20414;-85
2021/09/17 07:37:16;;;;;;;10.77;5.83;;;;;;;16.94;74.01;100459.59;5001914;28;20437;-85
2021/09/17 07:39:41;;;;;;;6.73;5.97;;;;;;;16.97;73.34;100467.25;5002004;28;20529;-85
2021/09/17 07:42:07;;;;;;;9.20;6.20;;;;;;;16.99;73.26;100465.03;5001466;28;20434;-84
2021/09/17 07:44:34;;;;;;;8.27;5.70;;;;;;;17.05;73.26;100461.16;5009284;28;20458;-85
2021/09/17 07:46:59;;;;;;;6.80;5.70;;;;;;;17.08;73.01;100457.03;5012578;28;20397;-85
2021/09/17 07:49:24;;;;;;;6.40;5.90;;;;;;;17.05;72.95;100452.94;5011922;28;20539;-85
2021/09/17 07:51:52;;;;;;;6.30;5.40;;;;;;;17.06;73.35;100461.94;5012349;28;20401;-85
2021/09/17 07:54:17;;;;;;;9.90;5.80;;;;;;;17.11;73.90;100454.53;5024822;28;20427;-84
2021/09/17 07:56:42;;;;;;;8.47;6.20;;;;;;;17.25;73.21;100464.81;5012897;28;20895;-86
2021/09/17 07:59:07;;;;;;;9.30;6.40;;;;;;;17.36;72.39;100461.66;5005650;28;20405;-86
2021/09/17 08:01:33;;;;;;;10.00;6.93;;;;;;;17.44;72.14;100458.31;5014651;28;20926;-85
2021/09/17 08:03:58;;;;;;;6.93;6.35;;;;;;;17.48;72.40;100455.81;5012659;28;20393;-83
2021/09/17 08:06:23;;;;;;;8.47;6.87;;;;;;;17.54;71.75;100466.44;5027730;28;20730;-84
2021/09/17 08:08:48;;;;;;;8.27;7.20;;;;;;;17.62;71.98;100459.50;5007426;28;20407;-83
2021/09/17 08:11:14;;;;;;;7.53;6.63;;;;;;;17.72;71.70;100458.56;5009952;28;20470;-83
2021/09/17 08:13:39;;;;;;;8.43;6.03;;;;;;;17.75;71.50;100464.28;5008523;28;20541;-86
2021/09/17 08:16:05;;;;;;;8.63;6.50;;;;;;;17.83;71.69;100468.31;5011750;28;20405;-87
2021/09/17 08:18:30;;;;;;;8.03;6.13;;;;;;;17.89;71.63;100467.97;5004604;28;20825;-83
2021/09/17 08:20:58;;;;;;;6.63;6.03;;;;;;;17.92;71.52;100459.16;5006907;28;20439;-83
2021/09/17 08:23:24;;;;;;;6.63;5.88;;;;;;;17.95;71.95;100460.47;5012233;28;20439;-86
2021/09/17 08:25:50;;;;;;;5.75;5.32;;;;;;;18.01;71.72;100457.38;5009901;28;20459;-86
2021/09/17 08:28:17;;;;;;;6.47;5.88;;;;;;;18.11;71.86;100462.72;5005363;28;20463;-85
2021/09/17 08:30:42;;;;;;;6.83;6.13;;;;;;;18.19;71.33;100460.44;5010411;28;20899;-78
2021/09/17 08:33:07;;;;;;;6.17;5.67;;;;;;;18.28;70.73;100459.50;5008539;28;20409;-82
2021/09/17 08:35:32;;;;;;;14.80;7.33;;;;;;;18.35;70.40;100459.94;5010991;28;20416;-83
2021/09/17 08:37:58;;;;;;;6.50;5.90;;;;;;;18.36;70.51;100466.25;5000748;28;20495;-82
2021/09/17 08:40:25;;;;;;;6.68;5.97;;;;;;;18.39;70.90;100458.25;5004823;28;20420;-81
2021/09/17 08:42:50;;;;;;;7.75;5.93;;;;;;;18.46;71.11;100460.63;5007118;28;20419;-83
2021/09/17 08:45:16;;;;;;;6.87;6.27;;;;;;;18.57;71.15;100446.47;5004915;28;20401;-83
2021/09/17 08:47:46;;;;;;;7.77;6.13;;;;;;;18.67;71.03;100458.41;5006236;28;21011;-83
2021/09/17 08:50:11;;;;;;;6.97;6.28;;;;;;;18.74;70.76;100456.91;5006051;28;20401;-83
2021/09/17 08:52:36;;;;;;;6.57;5.93;;;;;;;18.86;70.92;100456.47;5006756;28;20403;-85
2021/09/17 08:55:03;;;;;;;6.43;5.83;;;;;;;18.93;70.82;100459.63;5004020;28;20402;-83
2021/09/17 08:57:28;;;;;;;6.10;5.45;;;;;;;18.95;70.78;100457.41;5006641;28;20408;-85
2021/09/17 08:59:54;;;;;;;10.50;6.27;;;;;;;18.99;70.48;100458.44;4996364;28;20412;-85
2021/09/17 09:02:23;;;;;;;9.50;6.07;;;;;;;19.08;69.90;100456.63;5004197;28;20851;-85
2021/09/17 09:05:06;;;;;;;6.73;6.10;;;;;;;19.20;69.67;100456.94;5009505;28;20423;-83
2021/09/17 09:07:40;;;;;;;10.07;6.47;;;;;;;19.30;69.06;100454.03;5006926;28;20406;-85
2021/09/17 09:10:11;;;;;;;7.57;6.83;;;;;;;19.40;68.77;100461.25;5009430;28;20531;-85
2021/09/17 09:12:44;;;;;;;10.30;7.43;;;;;;;19.54;68.31;100453.88;5002429;28;20885;-82
2021/09/17 09:15:31;;;;;;;10.15;7.40;;;;;;;19.65;67.92;100453.41;5014338;28;20900;-84
2021/09/17 09:18:01;;;;;;;10.75;7.93;;;;;;;19.75;67.80;100446.88;5005267;28;20737;-83
2021/09/17 09:20:30;;;;;;;15.57;10.30;;;;;;;19.83;66.53;100450.84;5006877;28;20416;-83
2021/09/17 09:23:22;;;;;;;15.52;9.82;;;;;;;19.90;66.26;100449.31;5009418;28;20803;-82
2021/09/17 09:26:05;;;;;;;10.48;9.23;;;;;;;20.00;66.73;100456.53;4999318;28;20761;-83
2021/09/17 09:28:36;;;;;;;18.53;11.80;;;;;;;20.05;64.66;100448.19;5009797;28;20405;-83
2021/09/17 09:31:17;;;;;;;17.55;11.23;;;;;;;20.13;65.00;100452.94;5007836;28;20398;-82
2021/09/17 09:33:47;;;;;;;18.15;11.27;;;;;;;20.20;64.41;100456.09;5007874;28;20420;-84
2021/09/17 09:36:20;;;;;;;18.45;11.35;;;;;;;20.26;64.38;100456.78;5004613;28;20417;-83
2021/09/17 09:38:51;;;;;;;18.05;12.00;;;;;;;20.30;63.27;100453.16;5000078;28;20494;-84
2021/09/17 09:41:20;;;;;;;16.35;11.93;;;;;;;20.31;63.00;100449.28;5009609;28;20420;-84
2021/09/17 09:44:04;;;;;;;19.25;11.75;;;;;;;20.30;62.26;100447.66;5015999;28;20772;-83
2021/09/17 09:46:37;;;;;;;16.65;11.23;;;;;;;20.29;61.58;100443.25;5005919;28;20408;-83
2021/09/17 09:49:14;;;;;;;15.55;10.55;;;;;;;20.27;61.57;100442.75;5010566;28;20412;-83
2021/09/17 09:51:58;;;;;;;13.50;10.60;;;;;;;20.33;62.14;100441.53;5007184;28;20731;-82
2021/09/17 09:54:28;;;;;;;15.85;10.73;;;;;;;20.38;61.67;100441.41;5012110;28;20470;-82
2021/09/17 09:56:55;;;;;;;15.43;10.90;;;;;;;20.42;60.92;100439.66;5014085;28;20416;-83
2021/09/17 09:59:24;;;;;;;12.13;9.25;;;;;;;20.52;60.14;100439.41;5003762;28;20417;-84
2021/09/17 10:01:50;;;;;;;13.02;8.82;;;;;;;20.57;59.93;100442.06;5006175;28;20416;-86
2021/09/17 10:04:16;;;;;;;12.18;9.30;;;;;;;20.65;58.98;100435.81;5011178;28;20401;-83
2021/09/17 10:06:43;;;;;;;15.02;9.85;;;;;;;20.70;58.72;100434.88;5012101;28;20791;-82
2021/09/17 10:09:11;;;;;;;14.90;8.55;;;;;;;20.78;58.14;100438.81;5007313;28;20401;-82
2021/09/17 10:11:38;;;;;;;17.85;8.23;;;;;;;20.83;57.90;100422.97;5004690;28;20492;-83
2021/09/17 10:14:08;;;;;;;17.15;8.60;;;;;;;20.84;57.05;100427.38;5007032;28;20458;-82
2021/09/17 10:16:35;;;;;;;12.20;7.90;;;;;;;20.84;57.38;100432.06;5003715;28;20438;-83
2021/09/17 10:19:01;;;;;;;11.85;7.60;;;;;;;20.86;57.03;100425.09;5009845;28;20471;-84
2021/09/17 10:21:45;;;;;;;13.70;8.23;;;;;;;20.88;55.97;100428.34;5012937;28;20413;-83
2021/09/17 10:24:38;;;;;;;9.35;6.40;;;;;;;20.97;55.28;100423.72;5008868;28;20403;-83
2021/09/17 10:27:20;;;;;;;9.43;6.15;;;;;;;21.15;54.98;100419.97;5011854;28;20432;-83
2021/09/17 10:29:56;;;;;;;11.50;7.00;;;;;;;21.24;54.87;100413.69;5010821;28;20413;-83
2021/09/17 10:32:52;;;;;;;9.68;5.53;;;;;;;21.32;55.04;100413.72;5009679;28;20416;-83
2021/09/17 10:35:20;;;;;;;8.25;5.93;;;;;;;21.43;54.94;100408.75;5011653;28;20431;-83
2021/09/17 10:38:02;;;;;;;10.52;6.50;;;;;;;21.38;54.65;100406.13;5010336;28;20416;-83
2021/09/17 10:40:40;;;;;;;9.10;5.73;;;;;;;21.41;54.34;100409.06;5010814;28;20470;-83
2021/09/17 10:43:08;;;;;;;7.77;6.03;;;;;;;21.45;53.40;100409.25;5010991;28;20405;-83
2021/09/17 10:45:41;;;;;;;10.27;5.13;;;;;;;21.53;53.87;100402.97;5007388;28;20413;-83
2021/09/17 10:48:08;;;;;;;8.68;5.28;;;;;;;21.62;54.66;100404.63;5005085;28;20403;-82
2021/09/17 10:50:41;;;;;;;7.78;4.97;;;;;;;21.67;54.18;100406.41;5014313;28;20401;-83
2021/09/17 10:53:06;;;;;;;5.20;4.70;;;;;;;21.68;53.93;100406.09;5013083;28;20450;-83
2021/09/17 10:55:43;;;;;;;7.47;5.10;;;;;;;21.69;52.73;100399.44;5007587;28;21005;-83
2021/09/17 10:58:29;;;;;;;7.25;5.30;;;;;;;21.83;53.59;100395.75;5003753;28;20459;-82
2021/09/17 11:01:04;;;;;;;4.77;4.30;;;;;;;21.97;52.85;100397.25;5007834;28;20424;-83
2021/09/17 11:03:36;;;;;;;4.45;3.47;;;;;;;22.07;52.52;100401.66;5011324;28;20903;-83
2021/09/17 11:12:17;;;;;;;6.40;5.13;;;;;;;22.52;52.11;100397.47;5013892;28;20982;-79
2021/09/17 11:14:42;;;;;;;8.50;4.63;;;;;;;22.65;51.73;100395.69;5008688;28;20478;-79
2021/09/17 11:17:08;;;;;;;5.37;3.90;;;;;;;22.84;51.00;100400.88;5014628;28;20467;-80
2021/09/17 11:19:33;;;;;;;6.35;3.30;;;;;;;23.13;50.05;100393.50;5011110;28;21010;-80
2021/09/17 11:22:01;;;;;;;2.70;2.50;;;;;;;23.42;47.63;100391.94;5012694;28;20413;-80
2021/09/17 11:24:28;;;;;;;2.35;2.13;;;;;;;23.50;45.94;100391.09;5016434;28;20392;-81
2021/09/17 11:26:56;;;;;;;4.40;2.60;;;;;;;23.40;46.02;100388.66;5012947;28;20408;-79